sensor_id;sensor_type;location;lat;lon;timestamp;P1;P2;P0
33264;PMS5003;31404;53.974;-1.086;2022-12-24T00:00:39;21;14;
33264;PMS5003;31404;53.974;-1.086;2022-12-24T00:05:36;25;21;
33264;PMS5003;31404;53.974;-1.086;2022-12-24T00:10:35;18;18;
33264;PMS5003;31404;53.974;-1.086;2022-12-24T00:15:34;17;17;
33264;PMS5003;31404;53.974;-1.086;2022-12-24T00:20:34;18;16;
33264;PMS5003;31404;53.974;-1.086;2022-12-24T00:25:34;24;19;
33264;PMS5003;31404;53.974;-1.086;2022-12-24T00:35:35;14;14;
33264;PMS5003;31404;53.974;-1.086;2022-12-24T00:40:33;19;17;
33264;PMS5003;31404;53.974;-1.086;2022-12-24T00:45:34;14;14;
33264;PMS5003;31404;53.974;-1.086;2022-12-24T00:50:34;23;21;
33264;PMS5003;31404;53.974;-1.086;2022-12-24T00:55:34;20;17;
33264;PMS5003;31404;53.974;-1.086;2022-12-24T01:00:34;18;17;
33264;PMS5003;31404;53.974;-1.086;2022-12-24T01:05:34;22;19;
33264;PMS5003;31404;53.974;-1.086;2022-12-24T01:10:34;15;15;
33264;PMS5003;31404;53.974;-1.086;2022-12-24T01:15:35;20;17;
33264;PMS5003;31404;53.974;-1.086;2022-12-24T01:20:34;18;14;
33264;PMS5003;31404;53.974;-1.086;2022-12-24T01:25:36;17;13;
33264;PMS5003;31404;53.974;-1.086;2022-12-24T01:30:34;21;16;
33264;PMS5003;31404;53.974;-1.086;2022-12-24T01:35:34;19;17;
33264;PMS5003;31404;53.974;-1.086;2022-12-24T01:40:34;20;16;
33264;PMS5003;31404;53.974;-1.086;2022-12-24T01:50:34;19;18;
33264;PMS5003;31404;53.974;-1.086;2022-12-24T01:55:34;21;18;
33264;PMS5003;31404;53.974;-1.086;2022-12-24T02:00:34;22;18;
33264;PMS5003;31404;53.974;-1.086;2022-12-24T02:05:35;24;22;
33264;PMS5003;31404;53.974;-1.086;2022-12-24T02:10:41;17;13;
33264;PMS5003;31404;53.974;-1.086;2022-12-24T02:15:37;18;17;
33264;PMS5003;31404;53.974;-1.086;2022-12-24T02:30:35;18;16;
33264;PMS5003;31404;53.974;-1.086;2022-12-24T02:35:37;19;14;
33264;PMS5003;31404;53.974;-1.086;2022-12-24T02:40:35;19;15;
33264;PMS5003;31404;53.974;-1.086;2022-12-24T02:45:34;17;16;
33264;PMS5003;31404;53.974;-1.086;2022-12-24T02:50:35;18;15;
33264;PMS5003;31404;53.974;-1.086;2022-12-24T02:55:35;14;11;
33264;PMS5003;31404;53.974;-1.086;2022-12-24T03:00:36;15;12;
33264;PMS5003;31404;53.974;-1.086;2022-12-24T03:05:35;15;12;
33264;PMS5003;31404;53.974;-1.086;2022-12-24T03:10:36;15;12;
33264;PMS5003;31404;53.974;-1.086;2022-12-24T03:15:34;14;12;
33264;PMS5003;31404;53.974;-1.086;2022-12-24T03:20:35;14;10;
33264;PMS5003;31404;53.974;-1.086;2022-12-24T03:25:34;13;12;
33264;PMS5003;31404;53.974;-1.086;2022-12-24T03:30:34;13;10;
33264;PMS5003;31404;53.974;-1.086;2022-12-24T03:35:34;15;13;
33264;PMS5003;31404;53.974;-1.086;2022-12-24T03:40:34;14;11;
33264;PMS5003;31404;53.974;-1.086;2022-12-24T03:45:34;14;10;
33264;PMS5003;31404;53.974;-1.086;2022-12-24T03:50:34;14;11;
33264;PMS5003;31404;53.974;-1.086;2022-12-24T03:55:34;14;11;
33264;PMS5003;31404;53.974;-1.086;2022-12-24T04:00:34;13;12;
33264;PMS5003;31404;53.974;-1.086;2022-12-24T04:05:34;9;9;
33264;PMS5003;31404;53.974;-1.086;2022-12-24T04:10:34;11;9;
33264;PMS5003;31404;53.974;-1.086;2022-12-24T04:15:34;10;9;
33264;PMS5003;31404;53.974;-1.086;2022-12-24T04:20:34;12;10;
33264;PMS5003;31404;53.974;-1.086;2022-12-24T04:25:34;14;11;
33264;PMS5003;31404;53.974;-1.086;2022-12-24T04:30:34;8;8;
33264;PMS5003;31404;53.974;-1.086;2022-12-24T04:40:34;8;7;
33264;PMS5003;31404;53.974;-1.086;2022-12-24T04:45:34;9;5;
33264;PMS5003;31404;53.974;-1.086;2022-12-24T04:50:34;7;4;
33264;PMS5003;31404;53.974;-1.086;2022-12-24T04:55:34;9;8;
33264;PMS5003;31404;53.974;-1.086;2022-12-24T05:00:34;6;6;
33264;PMS5003;31404;53.974;-1.086;2022-12-24T05:05:34;7;5;
33264;PMS5003;31404;53.974;-1.086;2022-12-24T05:10:36;2;2;
33264;PMS5003;31404;53.974;-1.086;2022-12-24T05:15:34;3;3;
33264;PMS5003;31404;53.974;-1.086;2022-12-24T05:20:34;7;5;
33264;PMS5003;31404;53.974;-1.086;2022-12-24T05:25:35;4;4;
33264;PMS5003;31404;53.974;-1.086;2022-12-24T05:30:34;8;7;
33264;PMS5003;31404;53.974;-1.086;2022-12-24T05:35:35;3;3;
33264;PMS5003;31404;53.974;-1.086;2022-12-24T05:40:34;5;5;
33264;PMS5003;31404;53.974;-1.086;2022-12-24T05:45:34;4;4;
33264;PMS5003;31404;53.974;-1.086;2022-12-24T05:50:34;2;2;
33264;PMS5003;31404;53.974;-1.086;2022-12-24T05:55:34;3;2;
33264;PMS5003;31404;53.974;-1.086;2022-12-24T06:00:35;2;2;
33264;PMS5003;31404;53.974;-1.086;2022-12-24T06:05:34;3;1;
33264;PMS5003;31404;53.974;-1.086;2022-12-24T06:10:34;2;2;
33264;PMS5003;31404;53.974;-1.086;2022-12-24T06:15:34;1;1;
33264;PMS5003;31404;53.974;-1.086;2022-12-24T06:20:34;4;4;
33264;PMS5003;31404;53.974;-1.086;2022-12-24T06:25:37;2;2;
33264;PMS5003;31404;53.974;-1.086;2022-12-24T06:30:34;5;3;
33264;PMS5003;31404;53.974;-1.086;2022-12-24T06:35:34;4;4;
33264;PMS5003;31404;53.974;-1.086;2022-12-24T06:40:36;3;3;
33264;PMS5003;31404;53.974;-1.086;2022-12-24T06:45:34;2;2;
33264;PMS5003;31404;53.974;-1.086;2022-12-24T06:50:34;3;3;
33264;PMS5003;31404;53.974;-1.086;2022-12-24T06:55:34;5;4;
33264;PMS5003;31404;53.974;-1.086;2022-12-24T07:00:34;5;5;
33264;PMS5003;31404;53.974;-1.086;2022-12-24T07:05:34;4;4;
33264;PMS5003;31404;53.974;-1.086;2022-12-24T07:15:34;7;7;
33264;PMS5003;31404;53.974;-1.086;2022-12-24T07:20:34;6;4;
33264;PMS5003;31404;53.974;-1.086;2022-12-24T07:25:34;5;5;
33264;PMS5003;31404;53.974;-1.086;2022-12-24T07:30:34;5;3;
33264;PMS5003;31404;53.974;-1.086;2022-12-24T07:35:34;9;4;
33264;PMS5003;31404;53.974;-1.086;2022-12-24T07:40:34;5;5;
33264;PMS5003;31404;53.974;-1.086;2022-12-24T07:45:34;6;6;
33264;PMS5003;31404;53.974;-1.086;2022-12-24T07:50:34;5;5;
33264;PMS5003;31404;53.974;-1.086;2022-12-24T07:55:34;7;5;
33264;PMS5003;31404;53.974;-1.086;2022-12-24T08:00:34;6;3;
33264;PMS5003;31404;53.974;-1.086;2022-12-24T08:05:34;7;7;
33264;PMS5003;31404;53.974;-1.086;2022-12-24T08:10:34;8;7;
33264;PMS5003;31404;53.974;-1.086;2022-12-24T08:15:34;5;5;
33264;PMS5003;31404;53.974;-1.086;2022-12-24T08:20:36;8;8;
33264;PMS5003;31404;53.974;-1.086;2022-12-24T08:25:34;8;7;
33264;PMS5003;31404;53.974;-1.086;2022-12-24T08:30:34;5;5;
33264;PMS5003;31404;53.974;-1.086;2022-12-24T08:35:35;10;8;
33264;PMS5003;31404;53.974;-1.086;2022-12-24T08:40:34;7;6;
33264;PMS5003;31404;53.974;-1.086;2022-12-24T08:45:35;7;7;
33264;PMS5003;31404;53.974;-1.086;2022-12-24T08:50:34;10;7;
33264;PMS5003;31404;53.974;-1.086;2022-12-24T08:55:34;7;7;
33264;PMS5003;31404;53.974;-1.086;2022-12-24T09:00:34;9;9;
33264;PMS5003;31404;53.974;-1.086;2022-12-24T09:05:33;13;10;
33264;PMS5003;31404;53.974;-1.086;2022-12-24T09:10:34;12;11;
33264;PMS5003;31404;53.974;-1.086;2022-12-24T09:15:35;9;9;
33264;PMS5003;31404;53.974;-1.086;2022-12-24T09:20:34;13;11;
33264;PMS5003;31404;53.974;-1.086;2022-12-24T09:25:34;14;13;
33264;PMS5003;31404;53.974;-1.086;2022-12-24T09:30:35;9;9;
33264;PMS5003;31404;53.974;-1.086;2022-12-24T09:35:36;9;8;
33264;PMS5003;31404;53.974;-1.086;2022-12-24T09:40:35;12;9;
33264;PMS5003;31404;53.974;-1.086;2022-12-24T09:45:34;9;8;
33264;PMS5003;31404;53.974;-1.086;2022-12-24T09:50:35;11;9;
33264;PMS5003;31404;53.974;-1.086;2022-12-24T09:55:36;11;9;
33264;PMS5003;31404;53.974;-1.086;2022-12-24T10:00:34;10;7;
33264;PMS5003;31404;53.974;-1.086;2022-12-24T10:05:35;7;6;
33264;PMS5003;31404;53.974;-1.086;2022-12-24T10:10:36;10;7;
33264;PMS5003;31404;53.974;-1.086;2022-12-24T10:15:34;11;7;
33264;PMS5003;31404;53.974;-1.086;2022-12-24T10:20:36;9;7;
33264;PMS5003;31404;53.974;-1.086;2022-12-24T10:25:35;6;6;
33264;PMS5003;31404;53.974;-1.086;2022-12-24T10:30:34;10;10;
33264;PMS5003;31404;53.974;-1.086;2022-12-24T10:35:35;9;9;
33264;PMS5003;31404;53.974;-1.086;2022-12-24T10:40:36;9;6;
33264;PMS5003;31404;53.974;-1.086;2022-12-24T10:45:35;9;9;
33264;PMS5003;31404;53.974;-1.086;2022-12-24T10:50:35;9;7;
33264;PMS5003;31404;53.974;-1.086;2022-12-24T10:55:34;6;6;
33264;PMS5003;31404;53.974;-1.086;2022-12-24T11:00:34;9;8;
33264;PMS5003;31404;53.974;-1.086;2022-12-24T11:05:36;7;6;
33264;PMS5003;31404;53.974;-1.086;2022-12-24T11:10:34;5;5;
33264;PMS5003;31404;53.974;-1.086;2022-12-24T11:15:34;7;7;
33264;PMS5003;31404;53.974;-1.086;2022-12-24T11:20:34;18;8;
33264;PMS5003;31404;53.974;-1.086;2022-12-24T11:25:36;13;9;
33264;PMS5003;31404;53.974;-1.086;2022-12-24T11:30:35;12;5;
33264;PMS5003;31404;53.974;-1.086;2022-12-24T11:35:33;4;4;
33264;PMS5003;31404;53.974;-1.086;2022-12-24T11:40:35;8;7;
33264;PMS5003;31404;53.974;-1.086;2022-12-24T11:45:34;5;4;
33264;PMS5003;31404;53.974;-1.086;2022-12-24T11:50:35;6;4;
33264;PMS5003;31404;53.974;-1.086;2022-12-24T11:55:38;6;6;
33264;PMS5003;31404;53.974;-1.086;2022-12-24T12:00:35;7;7;
33264;PMS5003;31404;53.974;-1.086;2022-12-24T12:05:34;7;6;
33264;PMS5003;31404;53.974;-1.086;2022-12-24T12:10:35;10;6;
33264;PMS5003;31404;53.974;-1.086;2022-12-24T12:15:36;8;7;
33264;PMS5003;31404;53.974;-1.086;2022-12-24T12:20:36;5;5;
33264;PMS5003;31404;53.974;-1.086;2022-12-24T12:25:36;8;7;
33264;PMS5003;31404;53.974;-1.086;2022-12-24T12:30:34;11;8;
33264;PMS5003;31404;53.974;-1.086;2022-12-24T12:35:35;6;6;
33264;PMS5003;31404;53.974;-1.086;2022-12-24T12:45:37;9;6;
33264;PMS5003;31404;53.974;-1.086;2022-12-24T12:50:35;9;7;
33264;PMS5003;31404;53.974;-1.086;2022-12-24T12:55:37;7;5;
33264;PMS5003;31404;53.974;-1.086;2022-12-24T13:00:35;4;3;
33264;PMS5003;31404;53.974;-1.086;2022-12-24T13:20:35;8;7;
33264;PMS5003;31404;53.974;-1.086;2022-12-24T13:25:35;4;4;
33264;PMS5003;31404;53.974;-1.086;2022-12-24T13:30:35;12;8;
33264;PMS5003;31404;53.974;-1.086;2022-12-24T13:35:36;7;6;
33264;PMS5003;31404;53.974;-1.086;2022-12-24T13:40:34;9;8;
33264;PMS5003;31404;53.974;-1.086;2022-12-24T13:50:35;8;5;
33264;PMS5003;31404;53.974;-1.086;2022-12-24T13:55:34;9;5;
33264;PMS5003;31404;53.974;-1.086;2022-12-24T14:05:35;5;4;
33264;PMS5003;31404;53.974;-1.086;2022-12-24T14:10:35;7;6;
33264;PMS5003;31404;53.974;-1.086;2022-12-24T14:20:34;9;7;
33264;PMS5003;31404;53.974;-1.086;2022-12-24T14:25:33;8;8;
33264;PMS5003;31404;53.974;-1.086;2022-12-24T14:30:34;6;3;
33264;PMS5003;31404;53.974;-1.086;2022-12-24T14:35:34;5;5;
33264;PMS5003;31404;53.974;-1.086;2022-12-24T14:40:36;8;3;
33264;PMS5003;31404;53.974;-1.086;2022-12-24T14:45:36;6;5;
33264;PMS5003;31404;53.974;-1.086;2022-12-24T14:55:35;5;4;
33264;PMS5003;31404;53.974;-1.086;2022-12-24T15:00:34;8;8;
33264;PMS5003;31404;53.974;-1.086;2022-12-24T15:05:34;8;6;
33264;PMS5003;31404;53.974;-1.086;2022-12-24T15:10:34;8;7;
33264;PMS5003;31404;53.974;-1.086;2022-12-24T15:15:34;11;10;
33264;PMS5003;31404;53.974;-1.086;2022-12-24T15:20:34;10;10;
33264;PMS5003;31404;53.974;-1.086;2022-12-24T15:25:34;14;14;
33264;PMS5003;31404;53.974;-1.086;2022-12-24T15:30:34;13;12;
33264;PMS5003;31404;53.974;-1.086;2022-12-24T15:40:34;11;11;
33264;PMS5003;31404;53.974;-1.086;2022-12-24T15:45:34;16;10;
33264;PMS5003;31404;53.974;-1.086;2022-12-24T15:50:34;17;12;
33264;PMS5003;31404;53.974;-1.086;2022-12-24T15:55:36;15;14;
33264;PMS5003;31404;53.974;-1.086;2022-12-24T16:00:34;15;13;
33264;PMS5003;31404;53.974;-1.086;2022-12-24T16:05:34;12;12;
33264;PMS5003;31404;53.974;-1.086;2022-12-24T16:10:36;13;12;
33264;PMS5003;31404;53.974;-1.086;2022-12-24T16:15:34;16;14;
33264;PMS5003;31404;53.974;-1.086;2022-12-24T16:20:34;16;16;
33264;PMS5003;31404;53.974;-1.086;2022-12-24T16:25:34;12;10;
33264;PMS5003;31404;53.974;-1.086;2022-12-24T16:35:35;15;15;
33264;PMS5003;31404;53.974;-1.086;2022-12-24T16:40:34;15;12;
33264;PMS5003;31404;53.974;-1.086;2022-12-24T16:45:34;14;13;
33264;PMS5003;31404;53.974;-1.086;2022-12-24T16:50:34;17;15;
33264;PMS5003;31404;53.974;-1.086;2022-12-24T16:55:34;14;8;
33264;PMS5003;31404;53.974;-1.086;2022-12-24T17:00:35;14;11;
33264;PMS5003;31404;53.974;-1.086;2022-12-24T17:05:36;8;7;
33264;PMS5003;31404;53.974;-1.086;2022-12-24T17:10:34;15;13;
33264;PMS5003;31404;53.974;-1.086;2022-12-24T17:15:34;4;4;
33264;PMS5003;31404;53.974;-1.086;2022-12-24T17:20:35;20;15;
33264;PMS5003;31404;53.974;-1.086;2022-12-24T17:25:34;9;6;
33264;PMS5003;31404;53.974;-1.086;2022-12-24T17:30:34;16;13;
33264;PMS5003;31404;53.974;-1.086;2022-12-24T17:40:34;17;12;
33264;PMS5003;31404;53.974;-1.086;2022-12-24T17:50:36;12;10;
33264;PMS5003;31404;53.974;-1.086;2022-12-24T18:00:34;9;9;
33264;PMS5003;31404;53.974;-1.086;2022-12-24T18:05:34;11;11;
33264;PMS5003;31404;53.974;-1.086;2022-12-24T18:10:34;14;10;
33264;PMS5003;31404;53.974;-1.086;2022-12-24T18:15:35;10;10;
33264;PMS5003;31404;53.974;-1.086;2022-12-24T18:20:34;11;11;
33264;PMS5003;31404;53.974;-1.086;2022-12-24T18:25:33;12;12;
33264;PMS5003;31404;53.974;-1.086;2022-12-24T18:30:33;19;14;
33264;PMS5003;31404;53.974;-1.086;2022-12-24T18:35:34;17;14;
33264;PMS5003;31404;53.974;-1.086;2022-12-24T18:40:35;9;9;
33264;PMS5003;31404;53.974;-1.086;2022-12-24T18:50:34;12;12;
33264;PMS5003;31404;53.974;-1.086;2022-12-24T18:55:34;19;12;
33264;PMS5003;31404;53.974;-1.086;2022-12-24T19:00:34;16;16;
33264;PMS5003;31404;53.974;-1.086;2022-12-24T19:05:35;15;11;
33264;PMS5003;31404;53.974;-1.086;2022-12-24T19:10:35;16;13;
33264;PMS5003;31404;53.974;-1.086;2022-12-24T19:15:34;20;13;
33264;PMS5003;31404;53.974;-1.086;2022-12-24T19:20:36;17;12;
33264;PMS5003;31404;53.974;-1.086;2022-12-24T19:25:34;7;7;
33264;PMS5003;31404;53.974;-1.086;2022-12-24T19:30:34;20;16;
33264;PMS5003;31404;53.974;-1.086;2022-12-24T19:35:35;17;14;
33264;PMS5003;31404;53.974;-1.086;2022-12-24T19:40:34;23;12;
33264;PMS5003;31404;53.974;-1.086;2022-12-24T19:45:35;21;16;
33264;PMS5003;31404;53.974;-1.086;2022-12-24T19:50:34;23;16;
33264;PMS5003;31404;53.974;-1.086;2022-12-24T19:55:34;16;11;
33264;PMS5003;31404;53.974;-1.086;2022-12-24T20:00:34;20;14;
33264;PMS5003;31404;53.974;-1.086;2022-12-24T20:05:34;20;16;
33264;PMS5003;31404;53.974;-1.086;2022-12-24T20:10:37;15;15;
33264;PMS5003;31404;53.974;-1.086;2022-12-24T20:15:36;13;12;
33264;PMS5003;31404;53.974;-1.086;2022-12-24T20:20:35;19;17;
33264;PMS5003;31404;53.974;-1.086;2022-12-24T20:25:34;23;16;
33264;PMS5003;31404;53.974;-1.086;2022-12-24T20:30:34;21;16;
33264;PMS5003;31404;53.974;-1.086;2022-12-24T20:35:34;21;16;
33264;PMS5003;31404;53.974;-1.086;2022-12-24T20:40:34;17;14;
33264;PMS5003;31404;53.974;-1.086;2022-12-24T20:45:34;18;14;
33264;PMS5003;31404;53.974;-1.086;2022-12-24T20:50:34;19;17;
33264;PMS5003;31404;53.974;-1.086;2022-12-24T20:55:34;16;11;
33264;PMS5003;31404;53.974;-1.086;2022-12-24T21:00:34;8;8;
33264;PMS5003;31404;53.974;-1.086;2022-12-24T21:05:34;17;14;
33264;PMS5003;31404;53.974;-1.086;2022-12-24T21:10:35;18;15;
33264;PMS5003;31404;53.974;-1.086;2022-12-24T21:15:35;15;13;
33264;PMS5003;31404;53.974;-1.086;2022-12-24T21:20:34;19;18;
33264;PMS5003;31404;53.974;-1.086;2022-12-24T21:25:34;21;14;
33264;PMS5003;31404;53.974;-1.086;2022-12-24T21:30:34;15;11;
33264;PMS5003;31404;53.974;-1.086;2022-12-24T21:35:34;15;11;
33264;PMS5003;31404;53.974;-1.086;2022-12-24T21:40:34;11;11;
33264;PMS5003;31404;53.974;-1.086;2022-12-24T21:45:38;19;11;
33264;PMS5003;31404;53.974;-1.086;2022-12-24T21:50:34;11;10;
33264;PMS5003;31404;53.974;-1.086;2022-12-24T21:55:34;11;10;
33264;PMS5003;31404;53.974;-1.086;2022-12-24T22:00:34;13;9;
33264;PMS5003;31404;53.974;-1.086;2022-12-24T22:05:34;13;10;
33264;PMS5003;31404;53.974;-1.086;2022-12-24T22:10:34;12;8;
33264;PMS5003;31404;53.974;-1.086;2022-12-24T22:15:35;11;9;
33264;PMS5003;31404;53.974;-1.086;2022-12-24T22:25:35;9;9;
33264;PMS5003;31404;53.974;-1.086;2022-12-24T22:30:35;14;10;
33264;PMS5003;31404;53.974;-1.086;2022-12-24T22:35:36;10;7;
33264;PMS5003;31404;53.974;-1.086;2022-12-24T22:40:34;13;9;
33264;PMS5003;31404;53.974;-1.086;2022-12-24T22:45:34;5;4;
33264;PMS5003;31404;53.974;-1.086;2022-12-24T22:50:34;15;11;
33264;PMS5003;31404;53.974;-1.086;2022-12-24T22:55:34;9;9;
33264;PMS5003;31404;53.974;-1.086;2022-12-24T23:00:36;9;9;
33264;PMS5003;31404;53.974;-1.086;2022-12-24T23:05:34;6;5;
33264;PMS5003;31404;53.974;-1.086;2022-12-24T23:10:34;10;10;
33264;PMS5003;31404;53.974;-1.086;2022-12-24T23:15:35;8;8;
33264;PMS5003;31404;53.974;-1.086;2022-12-24T23:20:36;8;8;
33264;PMS5003;31404;53.974;-1.086;2022-12-24T23:25:34;8;6;
33264;PMS5003;31404;53.974;-1.086;2022-12-24T23:30:34;7;7;
33264;PMS5003;31404;53.974;-1.086;2022-12-24T23:35:34;11;6;
33264;PMS5003;31404;53.974;-1.086;2022-12-24T23:40:34;6;5;
33264;PMS5003;31404;53.974;-1.086;2022-12-24T23:45:34;7;5;
33264;PMS5003;31404;53.974;-1.086;2022-12-24T23:50:34;6;5;
33264;PMS5003;31404;53.974;-1.086;2022-12-24T23:55:34;8;6;
